createdAt,value
2023-05-23T00:01:37.699Z,96.80
2023-05-23T00:04:10.283Z,96.70
2023-05-23T00:06:46.977Z,96.80
2023-05-23T00:09:19.478Z,96.70
2023-05-23T00:11:51.418Z,96.70
2023-05-23T00:14:23.796Z,96.60
2023-05-23T00:16:55.759Z,96.60
2023-05-23T00:19:27.745Z,96.60
2023-05-23T00:21:59.664Z,96.80
2023-05-23T00:24:31.560Z,96.70
2023-05-23T00:27:03.778Z,96.70
2023-05-23T00:29:35.696Z,96.70
2023-05-23T00:32:07.629Z,96.80
2023-05-23T00:34:39.656Z,96.70
2023-05-23T00:37:11.824Z,96.70
2023-05-23T00:39:43.840Z,96.60
2023-05-23T00:42:15.768Z,96.70
2023-05-23T00:44:48.496Z,96.70
2023-05-23T00:47:20.644Z,96.80
2023-05-23T00:49:52.729Z,96.70
2023-05-23T00:52:25.377Z,96.60
2023-05-23T00:54:57.695Z,96.70
2023-05-23T00:57:29.959Z,96.90
2023-05-23T01:00:02.402Z,96.90
2023-05-23T01:02:36.774Z,97.20
2023-05-23T01:05:10.136Z,97.30
2023-05-23T01:07:42.118Z,97.10
2023-05-23T01:10:15.507Z,96.80
2023-05-23T01:13:02.388Z,96.60
2023-05-23T01:15:55.853Z,96.70
2023-05-23T01:18:38.421Z,97.00
2023-05-23T01:21:17.322Z,96.90
2023-05-23T01:24:10.737Z,97.10
2023-05-23T01:26:50.451Z,97.00
2023-05-23T01:29:38.003Z,97.40
2023-05-23T01:32:12.342Z,97.00
2023-05-23T01:34:45.427Z,97.10
2023-05-23T01:37:19.573Z,97.20
2023-05-23T01:39:51.532Z,97.20
2023-05-23T01:42:23.614Z,97.30
2023-05-23T01:44:59.349Z,97.20
2023-05-23T01:47:31.953Z,97.40
2023-05-23T01:50:04.414Z,97.50
2023-05-23T01:52:36.974Z,97.60
2023-05-23T01:55:10.267Z,97.50
2023-05-23T01:57:48.425Z,97.60
2023-05-23T02:00:20.881Z,97.70
2023-05-23T02:02:53.120Z,97.80
2023-05-23T02:05:25.918Z,98.00
2023-05-23T02:07:57.885Z,97.90
2023-05-23T02:10:29.962Z,98.00
2023-05-23T02:13:01.918Z,98.20
2023-05-23T02:15:34.018Z,98.30
2023-05-23T02:18:06.703Z,98.30
2023-05-23T02:20:38.900Z,98.10
2023-05-23T02:23:10.853Z,97.90
2023-05-23T02:25:43.400Z,97.70
2023-05-23T02:28:15.840Z,97.60
2023-05-23T02:30:48.042Z,97.60
2023-05-23T02:33:20.106Z,97.90
2023-05-23T02:35:52.070Z,98.10
2023-05-23T02:38:24.041Z,98.40
2023-05-23T02:40:57.657Z,98.60
2023-05-23T02:43:29.552Z,98.80
2023-05-23T02:46:01.517Z,98.90
2023-05-23T02:48:33.449Z,99.00
2023-05-23T02:51:05.556Z,98.80
2023-05-23T02:53:38.289Z,98.80
2023-05-23T02:56:10.359Z,98.90
2023-05-23T02:58:42.544Z,98.90
2023-05-23T03:01:14.546Z,98.90
2023-05-23T03:03:46.754Z,98.80
2023-05-23T03:06:19.196Z,98.90
2023-05-23T03:08:51.174Z,99.00
2023-05-23T03:11:23.218Z,99.30
2023-05-23T03:13:55.127Z,99.10
2023-05-23T03:16:27.143Z,99.00
2023-05-23T03:18:59.547Z,99.00
2023-05-23T03:21:32.906Z,99.30
2023-05-23T03:24:05.030Z,99.40
2023-05-23T03:26:36.973Z,99.70
2023-05-23T03:29:10.988Z,99.90
2023-05-23T03:31:43.113Z,99.90
2023-05-23T03:34:15.341Z,99.80
2023-05-23T03:36:47.407Z,99.70
2023-05-23T03:39:19.587Z,99.80
2023-05-23T03:41:51.581Z,99.90
2023-05-23T03:44:23.632Z,99.70
2023-05-23T03:46:55.673Z,99.50
2023-05-23T03:49:27.552Z,99.80
2023-05-23T03:51:59.460Z,99.40
2023-05-23T03:54:31.835Z,99.80
2023-05-23T03:57:04.044Z,99.90
2023-05-23T03:59:36.161Z,99.70
2023-05-23T04:02:11.545Z,99.90
2023-05-23T04:04:43.965Z,99.90
2023-05-23T04:07:16.689Z,99.90
2023-05-23T04:09:49.383Z,99.90
2023-05-23T04:12:22.267Z,99.90
2023-05-23T04:14:54.327Z,99.90
2023-05-23T04:17:30.754Z,99.90
2023-05-23T04:20:03.384Z,99.90
2023-05-23T04:22:35.544Z,99.90
2023-05-23T04:25:09.589Z,99.90
2023-05-23T04:27:48.295Z,99.90
2023-05-23T04:30:20.508Z,99.90
2023-05-23T04:32:53.841Z,99.90
2023-05-23T04:35:28.382Z,99.90
2023-05-23T04:38:01.948Z,99.80
2023-05-23T04:40:35.225Z,99.30
2023-05-23T04:43:33.649Z,99.20
2023-05-23T04:46:27.439Z,99.00
2023-05-23T04:49:21.456Z,98.90
2023-05-23T04:51:53.389Z,98.40
2023-05-23T04:54:33.239Z,98.30
2023-05-23T04:57:08.754Z,98.60
2023-05-23T04:59:42.541Z,98.10
2023-05-23T05:02:15.461Z,98.00
2023-05-23T05:04:47.386Z,97.60
2023-05-23T05:07:19.296Z,97.50
2023-05-23T05:09:51.529Z,97.10
2023-05-23T05:12:23.874Z,97.50
2023-05-23T05:14:55.872Z,97.20
2023-05-23T05:17:28.170Z,97.20
2023-05-23T05:20:10.936Z,97.00
2023-05-23T05:22:44.641Z,97.20
2023-05-23T05:25:17.974Z,97.00
2023-05-23T05:27:50.318Z,96.60
2023-05-23T05:30:24.847Z,96.00
2023-05-23T05:33:04.423Z,96.20
2023-05-23T05:35:38.409Z,96.00
2023-05-23T05:38:11.114Z,96.00
2023-05-23T05:40:45.770Z,95.40
2023-05-23T05:43:17.858Z,95.20
2023-05-23T05:45:49.964Z,95.30
2023-05-23T05:48:21.922Z,95.00
2023-05-23T05:50:55.102Z,95.20
2023-05-23T05:53:27.040Z,94.40
2023-05-23T05:56:00.260Z,94.50
2023-05-23T05:58:32.332Z,94.00
2023-05-23T06:01:10.514Z,94.10
2023-05-23T06:03:42.668Z,93.90
2023-05-23T06:06:14.761Z,93.50
2023-05-23T06:08:47.444Z,93.40
2023-05-23T06:11:21.791Z,93.60
2023-05-23T06:13:53.697Z,93.20
2023-05-23T06:16:25.836Z,93.20
2023-05-23T06:18:57.986Z,92.80
2023-05-23T06:21:33.187Z,92.70
2023-05-23T06:24:05.695Z,92.90
2023-05-23T06:26:37.777Z,92.60
2023-05-23T06:29:09.761Z,92.50
2023-05-23T06:31:41.672Z,92.10
2023-05-23T06:34:13.575Z,92.10
2023-05-23T06:36:46.946Z,92.10
2023-05-23T06:39:18.850Z,92.00
2023-05-23T06:41:51.333Z,91.80
2023-05-23T06:44:23.406Z,91.20
2023-05-23T06:46:59.311Z,90.90
2023-05-23T06:49:31.195Z,90.20
2023-05-23T06:52:03.068Z,90.00
2023-05-23T06:54:36.113Z,90.60
2023-05-23T06:57:07.995Z,90.30
2023-05-23T06:59:40.055Z,90.30
2023-05-23T07:02:12.046Z,89.90
2023-05-23T07:04:44.149Z,90.80
2023-05-23T07:07:23.932Z,91.80
2023-05-23T07:09:55.924Z,92.10
2023-05-23T07:12:27.890Z,92.10
2023-05-23T07:14:59.898Z,92.40
2023-05-23T07:17:33.935Z,92.60
2023-05-23T07:20:07.141Z,93.10
2023-05-23T07:22:41.615Z,92.70
2023-05-23T07:25:13.617Z,92.70
2023-05-23T07:27:45.573Z,92.60
2023-05-23T07:30:17.534Z,92.10
2023-05-23T07:32:49.929Z,91.80
2023-05-23T07:35:26.360Z,91.80
2023-05-23T07:37:58.697Z,91.70
2023-05-23T07:40:30.831Z,90.90
2023-05-23T07:43:02.861Z,91.30
2023-05-23T07:45:34.968Z,91.30
2023-05-23T07:48:07.189Z,91.10
2023-05-23T07:50:40.947Z,90.60
2023-05-23T07:53:13.305Z,90.80
2023-05-23T07:55:45.600Z,91.20
2023-05-23T07:58:18.578Z,91.30
2023-05-23T08:00:52.621Z,91.60
2023-05-23T08:03:44.867Z,91.60
2023-05-23T08:06:23.606Z,91.50
2023-05-23T08:08:55.712Z,92.10
2023-05-23T08:11:28.862Z,92.10
2023-05-23T08:14:01.648Z,92.00
2023-05-23T08:16:53.981Z,91.50
2023-05-23T08:19:29.761Z,91.50
2023-05-23T08:22:02.100Z,91.40
2023-05-23T08:24:34.406Z,91.00
2023-05-23T08:27:08.104Z,91.00
2023-05-23T08:29:41.331Z,90.10
2023-05-23T08:32:13.908Z,90.30
2023-05-23T08:34:46.081Z,90.60
2023-05-23T08:37:18.904Z,89.50
2023-05-23T08:39:52.243Z,90.50
2023-05-23T08:42:45.741Z,89.00
2023-05-23T08:45:19.649Z,87.60
2023-05-23T08:47:54.658Z,85.10
2023-05-23T08:50:30.837Z,85.00
2023-05-23T08:53:04.502Z,85.10
2023-05-23T08:55:38.298Z,85.80
2023-05-23T08:58:10.276Z,84.10
2023-05-23T09:00:51.375Z,83.20
2023-05-23T09:03:23.399Z,83.30
2023-05-23T09:06:21.903Z,83.40
2023-05-23T09:08:54.134Z,83.80
2023-05-23T09:11:28.022Z,83.30
2023-05-23T09:14:01.571Z,83.10
2023-05-23T09:16:37.357Z,81.20
2023-05-23T09:19:16.443Z,81.40
2023-05-23T09:21:55.974Z,81.00
2023-05-23T09:24:37.027Z,80.80
2023-05-23T09:27:11.481Z,80.60
2023-05-23T09:29:43.645Z,81.40
2023-05-23T09:32:18.192Z,82.70
2023-05-23T09:34:58.693Z,80.70
2023-05-23T09:37:32.965Z,78.80
2023-05-23T09:40:15.148Z,80.10
2023-05-23T09:42:53.331Z,79.40
2023-05-23T09:45:30.317Z,80.90
2023-05-23T09:48:02.504Z,80.50
2023-05-23T09:50:36.013Z,80.20
2023-05-23T09:53:09.025Z,80.10
2023-05-23T09:55:41.039Z,80.50
2023-05-23T09:58:13.715Z,79.80
2023-05-23T10:00:50.143Z,80.40
2023-05-23T10:03:35.767Z,80.90
2023-05-23T10:06:13.038Z,79.60
2023-05-23T10:08:48.905Z,80.70
2023-05-23T10:11:35.871Z,81.80
2023-05-23T10:14:10.090Z,83.00
2023-05-23T10:17:13.556Z,84.20
2023-05-23T10:20:12.396Z,83.50
2023-05-23T10:22:44.674Z,82.70
2023-05-23T10:25:17.263Z,82.40
2023-05-23T10:27:51.625Z,82.30
2023-05-23T10:30:29.124Z,82.10
2023-05-23T10:33:02.032Z,81.70
2023-05-23T10:35:52.573Z,81.20
2023-05-23T10:38:33.129Z,82.70
2023-05-23T10:41:23.704Z,82.70
2023-05-23T10:44:01.332Z,83.10
2023-05-23T10:47:03.944Z,82.60
2023-05-23T10:49:43.350Z,78.20
2023-05-23T10:52:18.030Z,79.50
2023-05-23T10:54:54.673Z,78.50
2023-05-23T10:57:27.944Z,78.00
2023-05-23T10:59:59.986Z,78.10
2023-05-23T11:02:32.099Z,77.90
2023-05-23T11:05:31.751Z,78.00
2023-05-23T11:08:17.897Z,77.50
2023-05-23T11:10:59.425Z,77.60
2023-05-23T11:13:52.997Z,78.40
2023-05-23T11:16:43.815Z,78.70
2023-05-23T11:19:18.567Z,78.80
2023-05-23T11:21:52.825Z,78.00
2023-05-23T11:24:45.000Z,76.70
2023-05-23T11:27:20.137Z,77.60
2023-05-23T11:30:16.309Z,77.50
2023-05-23T11:32:53.474Z,77.80
2023-05-23T11:35:26.192Z,78.60
2023-05-23T11:37:59.007Z,77.50
2023-05-23T11:40:33.787Z,78.80
2023-05-23T11:43:10.918Z,79.10
2023-05-23T11:45:43.274Z,79.10
2023-05-23T11:48:16.997Z,77.60
2023-05-23T11:50:50.588Z,77.10
2023-05-23T11:53:25.489Z,76.20
2023-05-23T11:56:00.394Z,76.10
2023-05-23T11:58:39.644Z,76.90
2023-05-23T12:01:13.585Z,77.20
2023-05-23T12:03:50.551Z,77.50
2023-05-23T12:06:24.757Z,77.70
2023-05-23T12:08:59.343Z,77.80
2023-05-23T12:11:35.900Z,76.50
2023-05-23T12:14:08.546Z,77.90
2023-05-23T12:16:43.181Z,77.90
2023-05-23T12:19:17.383Z,76.90
2023-05-23T12:21:49.943Z,77.10
2023-05-23T12:24:23.423Z,79.20
2023-05-23T12:26:59.486Z,78.10
2023-05-23T12:29:37.156Z,77.40
2023-05-23T12:32:09.055Z,76.80
2023-05-23T12:34:43.803Z,76.30
2023-05-23T12:37:20.290Z,75.90
2023-05-23T12:39:52.814Z,76.10
2023-05-23T12:42:24.665Z,76.40
2023-05-23T12:44:56.651Z,76.20
2023-05-23T12:47:28.627Z,77.10
2023-05-23T12:50:00.750Z,77.30
2023-05-23T12:52:32.773Z,77.20
2023-05-23T12:55:05.029Z,77.50
2023-05-23T12:57:37.925Z,76.60
2023-05-23T13:00:10.600Z,75.30
2023-05-23T13:02:42.640Z,76.60
2023-05-23T13:05:14.648Z,76.70
2023-05-23T13:07:46.603Z,76.60
2023-05-23T13:10:19.245Z,76.40
2023-05-23T13:12:52.059Z,76.20
2023-05-23T13:15:24.032Z,76.10
2023-05-23T13:17:57.924Z,75.20
2023-05-23T13:20:30.463Z,75.90
2023-05-23T13:23:02.411Z,76.60
2023-05-23T13:25:34.293Z,75.60
2023-05-23T13:28:06.666Z,76.80
2023-05-23T13:30:38.800Z,77.20
2023-05-23T13:33:11.045Z,77.20
2023-05-23T13:35:44.421Z,77.40
2023-05-23T13:38:21.521Z,78.10
2023-05-23T13:40:54.298Z,77.60
2023-05-23T13:43:26.309Z,78.00
2023-05-23T13:45:58.414Z,77.20
2023-05-23T13:48:30.640Z,77.80
2023-05-23T13:51:03.665Z,77.30
2023-05-23T13:53:35.744Z,77.50
2023-05-23T13:56:07.732Z,78.10
2023-05-23T13:58:39.820Z,78.10
2023-05-23T14:01:11.975Z,77.10
2023-05-23T14:03:44.855Z,76.60
2023-05-23T14:06:16.963Z,76.20
2023-05-23T14:08:48.810Z,76.80
2023-05-23T14:11:20.780Z,75.30
2023-05-23T14:13:52.950Z,76.10
2023-05-23T14:16:24.978Z,75.70
2023-05-23T14:18:57.540Z,76.20
2023-05-23T14:21:29.501Z,76.20
2023-05-23T14:24:01.559Z,74.50
2023-05-23T14:26:33.494Z,75.30
2023-05-23T14:29:05.446Z,74.50
2023-05-23T14:31:37.467Z,75.20
2023-05-23T14:34:09.450Z,75.30
2023-05-23T14:36:41.360Z,75.50
2023-05-23T14:39:13.487Z,75.50
2023-05-23T14:41:46.892Z,75.00
2023-05-23T14:44:18.886Z,74.50
2023-05-23T14:46:50.967Z,74.30
2023-05-23T14:49:23.582Z,75.30
2023-05-23T14:51:55.562Z,76.10
2023-05-23T14:54:27.540Z,74.70
2023-05-23T14:56:59.550Z,74.20
2023-05-23T14:59:31.951Z,75.60
2023-05-23T15:02:04.606Z,75.30
2023-05-23T15:04:37.287Z,75.20
2023-05-23T15:07:09.627Z,74.90
2023-05-23T15:09:41.712Z,74.50
2023-05-23T15:12:15.344Z,75.30
2023-05-23T15:14:47.545Z,72.90
2023-05-23T15:17:23.534Z,74.50
2023-05-23T15:19:57.420Z,74.90
2023-05-23T15:22:38.773Z,73.40
2023-05-23T15:25:11.948Z,70.50
2023-05-23T15:27:45.066Z,70.70
2023-05-23T15:30:17.391Z,70.20
2023-05-23T15:32:49.746Z,72.30
2023-05-23T15:35:21.754Z,70.80
2023-05-23T15:37:53.624Z,70.50
2023-05-23T15:40:26.007Z,70.70
2023-05-23T15:42:58.023Z,69.60
2023-05-23T15:45:29.909Z,68.00
2023-05-23T15:48:02.048Z,66.90
2023-05-23T15:50:34.054Z,65.70
2023-05-23T15:53:06.262Z,67.00
2023-05-23T15:55:41.270Z,68.20
2023-05-23T15:58:15.020Z,67.60
2023-05-23T16:00:46.953Z,68.70
2023-05-23T16:03:18.966Z,69.00
2023-05-23T16:05:51.097Z,69.70
2023-05-23T16:08:22.993Z,70.60
2023-05-23T16:10:55.124Z,70.40
2023-05-23T16:13:26.972Z,71.30
2023-05-23T16:15:59.238Z,72.40
2023-05-23T16:18:31.205Z,73.00
2023-05-23T16:21:03.272Z,71.80
2023-05-23T16:23:35.155Z,71.20
2023-05-23T16:26:07.108Z,71.80
2023-05-23T16:28:39.024Z,71.90
2023-05-23T16:31:14.740Z,70.90
2023-05-23T16:33:46.780Z,71.90
2023-05-23T16:36:18.782Z,73.60
2023-05-23T16:38:51.098Z,76.30
2023-05-23T16:41:24.403Z,76.40
2023-05-23T16:43:56.368Z,75.60
2023-05-23T16:46:28.363Z,75.90
2023-05-23T16:49:00.421Z,76.30
2023-05-23T16:51:32.351Z,76.30
2023-05-23T16:54:05.481Z,76.70
2023-05-23T16:56:39.156Z,76.50
2023-05-23T16:59:11.121Z,77.20
2023-05-23T17:01:43.033Z,77.80
2023-05-23T17:04:14.923Z,77.70
2023-05-23T17:06:46.995Z,77.70
2023-05-23T17:09:21.302Z,78.60
2023-05-23T17:11:53.322Z,78.00
2023-05-23T17:14:25.609Z,77.50
2023-05-23T17:16:57.806Z,78.20
2023-05-23T17:19:30.082Z,78.70
2023-05-23T17:22:06.091Z,78.50
2023-05-23T17:24:39.537Z,79.10
2023-05-23T17:27:11.464Z,80.10
2023-05-23T17:29:43.360Z,80.80
2023-05-23T17:32:15.327Z,81.40
2023-05-23T17:34:47.242Z,82.30
2023-05-23T17:37:19.975Z,83.00
2023-05-23T17:39:52.079Z,83.60
2023-05-23T17:42:25.502Z,83.60
2023-05-23T17:44:57.445Z,84.10
2023-05-23T17:47:31.026Z,84.90
2023-05-23T17:50:04.467Z,85.60
2023-05-23T17:52:36.554Z,85.20
2023-05-23T17:55:09.188Z,85.60
2023-05-23T17:57:41.179Z,86.20
2023-05-23T18:00:13.509Z,86.40
2023-05-23T18:02:45.731Z,86.70
2023-05-23T18:05:20.364Z,87.10
2023-05-23T18:07:52.676Z,87.30
2023-05-23T18:10:24.727Z,87.10
2023-05-23T18:12:56.906Z,87.80
2023-05-23T18:15:28.953Z,86.80
2023-05-23T18:18:00.885Z,86.50
2023-05-23T18:20:33.268Z,86.30
2023-05-23T18:23:05.302Z,86.40
2023-05-23T18:25:37.180Z,86.80
2023-05-23T18:28:09.052Z,88.10
2023-05-23T18:30:41.154Z,88.40
2023-05-23T18:33:13.358Z,89.30
2023-05-23T18:35:46.816Z,90.10
2023-05-23T18:38:19.242Z,90.50
2023-05-23T18:40:51.255Z,91.00
2023-05-23T18:43:23.153Z,91.60
2023-05-23T18:45:55.090Z,91.70
2023-05-23T18:48:27.297Z,91.90
2023-05-23T18:50:59.206Z,92.00
2023-05-23T18:53:31.345Z,92.40
2023-05-23T18:56:03.336Z,92.70
2023-05-23T18:58:35.604Z,92.60
2023-05-23T19:01:07.801Z,92.70
2023-05-23T19:03:41.543Z,93.00
2023-05-23T19:06:13.697Z,93.20
2023-05-23T19:08:45.616Z,93.30
2023-05-23T19:11:17.613Z,93.70
2023-05-23T19:13:49.870Z,93.40
2023-05-23T19:16:24.130Z,93.10
2023-05-23T19:18:56.169Z,93.20
2023-05-23T19:21:28.550Z,93.50
2023-05-23T19:24:00.606Z,93.80
2023-05-23T19:26:32.587Z,93.80
2023-05-23T19:29:05.375Z,94.00
2023-05-23T19:31:38.096Z,94.10
2023-05-23T19:34:10.199Z,94.30
2023-05-23T19:36:42.145Z,94.70
2023-05-23T19:39:15.027Z,95.00
2023-05-23T19:41:46.962Z,95.10
2023-05-23T19:44:19.097Z,95.20
2023-05-23T19:46:51.103Z,95.40
2023-05-23T19:49:23.050Z,95.50
2023-05-23T19:51:54.945Z,95.60
2023-05-23T19:54:28.329Z,95.80
2023-05-23T19:57:00.273Z,95.80
2023-05-23T19:59:32.218Z,96.00
2023-05-23T20:02:04.720Z,96.20
2023-05-23T20:04:36.578Z,96.50
2023-05-23T20:07:08.532Z,96.70
2023-05-23T20:09:40.383Z,97.60
2023-05-23T20:12:12.338Z,96.80
2023-05-23T20:14:44.319Z,96.10
2023-05-23T20:17:16.297Z,96.40
2023-05-23T20:19:48.225Z,96.40
2023-05-23T20:22:20.131Z,96.50
2023-05-23T20:24:51.957Z,96.80
2023-05-23T20:27:23.920Z,96.90
2023-05-23T20:29:55.982Z,96.80
2023-05-23T20:32:27.965Z,97.30
2023-05-23T20:35:01.207Z,97.10
2023-05-23T20:37:33.570Z,97.00
2023-05-23T20:40:07.660Z,97.40
2023-05-23T20:42:39.642Z,97.10
2023-05-23T20:45:12.331Z,96.80
2023-05-23T20:47:44.384Z,96.70
2023-05-23T20:50:17.473Z,97.10
2023-05-23T20:52:49.404Z,96.80
2023-05-23T20:55:22.427Z,96.90
2023-05-23T20:57:54.429Z,96.90
2023-05-23T21:00:26.420Z,96.70
2023-05-23T21:02:58.580Z,96.90
2023-05-23T21:05:30.701Z,97.20
2023-05-23T21:08:02.947Z,97.60
2023-05-23T21:10:34.847Z,97.50
2023-05-23T21:13:06.786Z,96.80
2023-05-23T21:15:38.953Z,96.40
2023-05-23T21:18:10.963Z,96.70
2023-05-23T21:20:43.044Z,97.30
2023-05-23T21:23:15.159Z,96.30
2023-05-23T21:25:47.136Z,96.70
2023-05-23T21:28:19.290Z,96.30
2023-05-23T21:30:51.579Z,96.50
2023-05-23T21:33:23.640Z,96.50
2023-05-23T21:35:55.646Z,96.40
2023-05-23T21:38:29.435Z,96.30
2023-05-23T21:41:01.421Z,96.50
2023-05-23T21:43:33.328Z,96.50
2023-05-23T21:46:05.348Z,96.60
2023-05-23T21:48:37.279Z,96.50
2023-05-23T21:51:09.203Z,96.80
2023-05-23T21:53:41.215Z,96.90
2023-05-23T21:56:13.109Z,97.20
2023-05-23T21:58:45.042Z,97.30
2023-05-23T22:01:16.975Z,97.50
2023-05-23T22:03:49.029Z,97.60
2023-05-23T22:06:21.105Z,97.70
2023-05-23T22:08:53.321Z,97.70
2023-05-23T22:11:29.742Z,97.20
2023-05-23T22:14:02.443Z,97.40
2023-05-23T22:16:39.123Z,97.50
2023-05-23T22:19:12.659Z,97.60
2023-05-23T22:21:44.593Z,97.70
2023-05-23T22:24:16.614Z,97.70
2023-05-23T22:26:48.632Z,97.50
2023-05-23T22:29:21.162Z,97.60
2023-05-23T22:31:53.126Z,97.90
2023-05-23T22:34:25.149Z,98.00
2023-05-23T22:36:59.678Z,98.10
2023-05-23T22:39:32.321Z,98.30
2023-05-23T22:42:04.433Z,98.30
2023-05-23T22:44:36.577Z,98.10
2023-05-23T22:47:10.287Z,97.90
2023-05-23T22:49:42.590Z,97.60
2023-05-23T22:52:14.472Z,98.00
2023-05-23T22:54:46.382Z,98.40
2023-05-23T22:57:18.500Z,98.40
2023-05-23T22:59:50.567Z,98.40
2023-05-23T23:02:22.615Z,98.00
2023-05-23T23:04:54.590Z,97.70
2023-05-23T23:07:26.568Z,98.10
2023-05-23T23:09:58.596Z,98.80
2023-05-23T23:12:30.459Z,98.50
2023-05-23T23:15:02.424Z,98.40
2023-05-23T23:17:34.690Z,98.40
2023-05-23T23:20:12.615Z,98.10
2023-05-23T23:22:45.557Z,98.10
2023-05-23T23:25:18.934Z,98.30
2023-05-23T23:27:50.946Z,98.50
2023-05-23T23:30:22.808Z,99.00
2023-05-23T23:32:54.711Z,98.60
2023-05-23T23:35:26.656Z,98.60
2023-05-23T23:37:58.647Z,98.60
2023-05-23T23:40:30.495Z,98.70
2023-05-23T23:43:02.444Z,98.70
2023-05-23T23:45:34.334Z,98.90
2023-05-23T23:48:06.374Z,99.10
2023-05-23T23:50:38.332Z,99.20
2023-05-23T23:53:10.414Z,99.30
2023-05-23T23:55:42.294Z,99.50
2023-05-23T23:58:14.320Z,99.50
